createdAt,value
2022-10-01T00:03:07.061Z,99208.22
2022-10-01T00:08:09.823Z,99212.59
2022-10-01T00:13:12.270Z,99178.22
2022-10-01T00:18:14.824Z,99216.97
2022-10-01T00:23:24.658Z,99213.28
2022-10-01T00:28:27.899Z,99223.66
2022-10-01T00:33:30.480Z,99203.03
2022-10-01T00:38:34.053Z,99203.53
2022-10-01T00:43:42.812Z,99220.31
2022-10-01T00:49:01.203Z,99164.66
2022-10-01T00:54:18.416Z,99187.94
2022-10-01T00:59:21.303Z,99192.22
2022-10-01T01:04:23.757Z,99201.84
2022-10-01T01:09:35.752Z,99139.22
2022-10-01T01:14:48.941Z,99190.56
2022-10-01T01:20:12.981Z,99207.13
2022-10-01T01:25:18.942Z,99202.31
2022-10-01T01:30:21.520Z,99205.78
2022-10-01T01:42:39.867Z,99224.16
2022-10-01T01:47:44.954Z,99215.88
2022-10-01T01:52:47.456Z,99199.41
2022-10-01T01:57:51.490Z,99202.44
2022-10-01T02:02:57.187Z,99188.94
2022-10-01T02:08:15.877Z,99224.72
2022-10-01T02:13:38.999Z,99228.00
2022-10-01T02:19:05.257Z,99223.50
2022-10-01T02:24:43.942Z,99234.66
2022-10-01T02:29:49.772Z,99233.38
2022-10-01T02:34:57.791Z,99235.41
2022-10-01T02:40:02.820Z,99218.88
2022-10-01T02:45:07.912Z,99224.13
2022-10-01T02:50:16.926Z,99209.94
2022-10-01T02:55:33.915Z,99220.41
2022-10-01T03:00:37.409Z,99236.97
2022-10-01T03:05:40.878Z,99194.16
2022-10-01T03:10:46.585Z,99230.66
2022-10-01T03:15:50.021Z,99248.75
2022-10-01T03:20:54.923Z,99235.09
2022-10-01T03:25:59.726Z,99258.72
2022-10-01T03:36:34.583Z,99258.59
2022-10-01T03:41:37.978Z,99243.22
2022-10-01T03:46:40.526Z,99248.34
2022-10-01T03:51:43.190Z,99236.13
2022-10-01T03:56:50.604Z,99244.00
2022-10-01T04:01:55.380Z,99275.09
2022-10-01T04:06:57.989Z,99258.41
2022-10-01T04:12:03.464Z,99280.75
2022-10-01T04:17:05.993Z,99281.78
2022-10-01T04:22:08.527Z,99292.75
2022-10-01T04:27:13.791Z,99286.09
2022-10-01T04:32:27.717Z,99277.19
2022-10-01T04:37:31.284Z,99272.22
2022-10-01T04:42:33.777Z,99308.78
2022-10-01T04:47:37.710Z,99285.44
2022-10-01T04:52:42.547Z,99296.03
2022-10-01T04:57:50.711Z,99302.16
2022-10-01T05:02:55.279Z,99316.59
2022-10-01T05:08:00.114Z,99308.63
2022-10-01T05:13:02.949Z,99307.63
2022-10-01T05:18:08.212Z,99305.94
2022-10-01T05:23:15.502Z,99272.09
2022-10-01T05:28:22.774Z,99321.78
2022-10-01T05:33:31.264Z,99322.22
2022-10-01T05:38:47.697Z,99293.88
2022-10-01T05:43:51.356Z,99285.88
2022-10-01T05:48:53.988Z,99330.31
2022-10-01T05:53:59.187Z,99314.63
2022-10-01T05:59:04.481Z,99311.84
2022-10-01T06:04:11.624Z,99339.03
2022-10-01T06:09:14.497Z,99312.03
2022-10-01T06:14:19.638Z,99358.91
2022-10-01T06:19:24.004Z,99343.66
2022-10-01T06:24:26.953Z,99338.31
2022-10-01T06:29:29.472Z,99346.66
2022-10-01T06:34:32.051Z,99363.38
2022-10-01T06:40:44.784Z,99377.41
2022-10-01T06:45:47.525Z,99359.06
2022-10-01T06:50:53.549Z,99348.75
2022-10-01T06:55:57.206Z,99355.19
2022-10-01T07:01:02.320Z,99387.50
2022-10-01T07:06:08.070Z,99374.78
2022-10-01T07:11:20.203Z,99382.66
2022-10-01T07:16:22.736Z,99377.53
2022-10-01T07:21:25.260Z,99367.25
2022-10-01T07:26:29.472Z,99383.03
2022-10-01T07:31:33.417Z,99387.63
2022-10-01T07:36:36.205Z,99377.31
2022-10-01T07:41:39.076Z,99395.44
2022-10-01T07:46:41.818Z,99397.53
2022-10-01T07:51:44.317Z,99351.63
2022-10-01T07:56:46.836Z,99389.41
2022-10-01T08:01:51.854Z,99392.09
2022-10-01T08:06:54.513Z,99411.59
2022-10-01T08:11:57.008Z,99397.75
2022-10-01T08:16:59.607Z,99432.53
2022-10-01T08:22:01.923Z,99446.78
2022-10-01T08:27:04.383Z,99460.03
2022-10-01T08:32:09.457Z,99433.75
2022-10-01T08:37:13.785Z,99446.97
2022-10-01T08:42:49.475Z,99461.53
2022-10-01T08:48:21.758Z,99457.72
2022-10-01T08:53:41.895Z,99460.00
2022-10-01T08:58:48.662Z,99465.59
2022-10-01T09:03:51.269Z,99460.91
2022-10-01T09:09:18.749Z,99466.66
2022-10-01T09:14:29.343Z,99469.75
2022-10-01T09:19:54.336Z,99477.53
2022-10-01T09:25:16.503Z,99477.81
2022-10-01T09:30:23.575Z,99476.94
2022-10-01T09:35:35.257Z,99467.88
2022-10-01T09:40:52.520Z,99487.13
2022-10-01T09:45:57.536Z,99477.22
2022-10-01T09:51:14.464Z,99476.75
2022-10-01T09:56:29.904Z,99465.47
2022-10-01T10:01:42.679Z,99475.78
2022-10-01T10:06:49.426Z,99464.09
2022-10-01T10:11:51.843Z,99465.53
2022-10-01T10:16:55.974Z,99467.00
2022-10-01T10:22:09.517Z,99471.16
2022-10-01T10:27:31.274Z,99478.03
2022-10-01T10:32:43.153Z,99471.78
2022-10-01T10:37:55.888Z,99476.56
2022-10-01T10:43:00.805Z,99473.06
2022-10-01T10:48:05.702Z,99474.19
2022-10-01T10:53:34.666Z,99468.63
2022-10-01T10:58:40.438Z,99465.78
2022-10-01T11:03:45.038Z,99458.16
2022-10-01T11:08:57.297Z,99460.41
2022-10-01T11:14:13.876Z,99461.19
2022-10-01T11:19:22.256Z,99462.09
2022-10-01T11:24:33.172Z,99466.88
2022-10-01T11:29:38.197Z,99469.41
2022-10-01T11:34:40.406Z,99468.38
2022-10-01T11:45:14.136Z,99482.19
2022-10-01T11:50:25.835Z,99467.91
2022-10-01T11:55:56.873Z,99461.75
2022-10-01T12:01:04.154Z,99455.56
2022-10-01T12:06:09.517Z,99466.59
2022-10-01T12:11:24.987Z,99453.25
2022-10-01T12:16:45.822Z,99461.84
2022-10-01T12:22:11.824Z,99461.16
2022-10-01T12:27:27.655Z,99471.91
2022-10-01T12:32:36.569Z,99469.38
2022-10-01T12:37:58.494Z,99489.81
2022-10-01T12:43:14.645Z,99484.00
2022-10-01T12:48:26.034Z,99483.53
2022-10-01T12:53:37.161Z,99491.25
2022-10-01T12:58:39.402Z,99498.75
2022-10-01T13:03:53.587Z,99512.59
2022-10-01T13:09:00.953Z,99502.69
2022-10-01T13:14:04.501Z,99520.81
2022-10-01T13:19:14.658Z,99541.59
2022-10-01T13:24:24.165Z,99538.50
2022-10-01T13:29:36.197Z,99532.13
2022-10-01T13:34:49.178Z,99525.63
2022-10-01T13:39:51.565Z,99508.47
2022-10-01T13:44:58.732Z,99512.81
2022-10-01T13:50:04.923Z,99516.28
2022-10-01T13:55:25.802Z,99521.56
2022-10-01T14:00:28.164Z,99539.44
2022-10-01T14:05:39.719Z,99543.78
2022-10-01T14:11:10.462Z,99549.81
2022-10-01T14:16:15.190Z,99535.84
2022-10-01T14:21:17.485Z,99585.16
2022-10-01T14:26:37.621Z,99584.66
2022-10-01T14:31:50.138Z,99615.63
2022-10-01T14:36:54.397Z,99592.31
2022-10-01T14:41:58.864Z,99593.06
2022-10-01T14:47:11.806Z,99601.78
2022-10-01T14:52:23.423Z,99583.53
2022-10-01T14:57:28.089Z,99580.06
2022-10-01T15:02:30.497Z,99605.06
2022-10-01T15:07:36.673Z,99583.22
2022-10-01T15:12:41.589Z,99565.00
2022-10-01T15:17:43.998Z,99568.22
2022-10-01T15:22:48.943Z,99561.84
2022-10-01T15:27:54.244Z,99576.28
2022-10-01T15:32:56.846Z,99556.69
2022-10-01T15:38:00.855Z,99555.66
2022-10-01T15:43:15.646Z,99547.53
2022-10-01T15:48:30.782Z,99564.31
2022-10-01T15:53:34.857Z,99538.09
2022-10-01T15:59:12.791Z,99540.47
2022-10-01T16:04:18.840Z,99522.28
2022-10-01T16:09:25.139Z,99534.38
2022-10-01T16:14:38.978Z,99541.81
2022-10-01T16:19:44.987Z,99545.38
2022-10-01T16:24:54.789Z,99548.28
2022-10-01T16:30:05.306Z,99565.28
2022-10-01T16:35:21.716Z,99563.38
2022-10-01T16:40:50.003Z,99554.56
2022-10-01T16:45:50.601Z,99562.19
2022-10-01T16:50:54.009Z,99559.81
2022-10-01T16:55:58.462Z,99554.56
2022-10-01T17:01:06.810Z,99568.53
2022-10-01T17:06:09.411Z,99555.34
2022-10-01T17:11:12.873Z,99562.91
2022-10-01T17:16:19.443Z,99562.16
2022-10-01T17:21:25.183Z,99585.53
2022-10-01T17:26:28.099Z,99588.66
2022-10-01T17:31:33.945Z,99557.44
2022-10-01T17:36:39.073Z,99576.34
2022-10-01T17:41:41.348Z,99581.91
2022-10-01T17:46:45.243Z,99553.50
2022-10-01T17:51:51.711Z,99583.03
2022-10-01T17:57:09.071Z,99585.28
2022-10-01T18:02:36.775Z,99581.31
2022-10-01T18:07:37.374Z,99620.34
2022-10-01T18:12:40.836Z,99602.69
2022-10-01T18:17:51.381Z,99601.31
2022-10-01T18:22:56.508Z,99609.66
2022-10-01T18:27:58.879Z,99622.84
2022-10-01T18:33:03.337Z,99633.34
2022-10-01T18:38:24.401Z,99642.69
2022-10-01T18:43:30.299Z,99648.47
2022-10-01T18:48:51.579Z,99648.22
2022-10-01T18:54:19.546Z,99643.34
2022-10-01T18:59:30.536Z,99645.88
2022-10-01T19:04:35.727Z,99651.63
2022-10-01T19:10:03.602Z,99655.28
2022-10-01T19:15:13.894Z,99666.63
2022-10-01T19:20:33.495Z,99677.44
2022-10-01T19:31:30.899Z,99673.22
2022-10-01T19:36:39.975Z,99678.91
2022-10-01T19:41:50.452Z,99680.56
2022-10-01T19:47:01.754Z,99689.50
2022-10-01T19:52:12.164Z,99694.06
2022-10-01T19:57:18.719Z,99696.16
2022-10-01T20:02:32.376Z,99687.47
2022-10-01T20:07:35.227Z,99702.38
2022-10-01T20:12:44.553Z,99707.63
2022-10-01T20:18:08.593Z,99706.94
2022-10-01T20:23:11.250Z,99726.34
2022-10-01T20:28:40.424Z,99725.41
2022-10-01T20:33:49.292Z,99725.53
2022-10-01T20:39:04.133Z,99739.00
2022-10-01T20:44:15.817Z,99733.44
2022-10-01T20:49:18.786Z,99737.84
2022-10-01T20:54:25.341Z,99741.72
2022-10-01T20:59:35.040Z,99747.50
2022-10-01T21:04:43.098Z,99753.69
2022-10-01T21:09:48.214Z,99765.19
2022-10-01T21:14:55.231Z,99769.38
2022-10-01T21:20:03.910Z,99784.09
2022-10-01T21:25:15.086Z,99782.38
2022-10-01T21:30:21.152Z,99781.94
2022-10-01T21:35:32.645Z,99785.78
2022-10-01T21:40:47.664Z,99794.03
2022-10-01T21:46:03.099Z,99786.41
2022-10-01T21:51:27.691Z,99784.78
2022-10-01T21:56:41.365Z,99788.72
2022-10-01T22:02:04.659Z,99789.94
2022-10-01T22:07:15.816Z,99783.16
2022-10-01T22:12:21.010Z,99787.94
2022-10-01T22:17:33.118Z,99790.41
2022-10-01T22:22:41.600Z,99803.03
2022-10-01T22:33:10.116Z,99800.13
2022-10-01T22:38:39.313Z,99798.75
2022-10-01T22:43:46.072Z,99792.41
2022-10-01T22:48:49.244Z,99796.25
2022-10-01T22:54:09.398Z,99812.47
2022-10-01T22:59:14.434Z,99809.22
2022-10-01T23:04:32.091Z,99817.72
2022-10-01T23:09:56.120Z,99821.88
2022-10-01T23:15:03.678Z,99830.56
2022-10-01T23:20:12.616Z,99836.66
2022-10-01T23:25:38.311Z,99838.19
2022-10-01T23:30:49.168Z,99834.47
2022-10-01T23:36:13.606Z,99828.31
2022-10-01T23:41:58.852Z,99840.50
2022-10-01T23:47:05.083Z,99834.88
2022-10-01T23:52:16.979Z,99841.28
2022-10-01T23:57:39.182Z,99840.41
